Time;durP1;ratioP1;P1;durP2;ratioP2;P2;SDS_P1;SDS_P2;PMS_P1;PMS_P2;Temp;Humidity;BMP_temperature;BMP_pressure;BME280_temperature;BME280_humidity;BME280_pressure;Samples;Min_cycle;Max_cycle;Signal;HPM_P1;HPM_P2
2023/07/06 00:01:23;;;;;;;4.30;2.90;;;16.80;94.60;;;;;;5093239;28;20475;-57
2023/07/06 00:03:50;;;;;;;5.03;3.27;;;16.80;94.70;;;;;;5093206;28;20507;-57
2023/07/06 00:06:18;;;;;;;8.73;3.80;;;16.80;94.70;;;;;;5093283;28;20451;-57
2023/07/06 00:08:45;;;;;;;4.83;3.07;;;16.70;94.60;;;;;;5093311;28;20450;-57
2023/07/06 00:11:12;;;;;;;4.30;3.30;;;16.70;94.60;;;;;;5093171;28;20444;-57
2023/07/06 00:13:40;;;;;;;7.07;2.90;;;16.70;94.60;;;;;;5093199;28;20467;-57
2023/07/06 00:16:07;;;;;;;5.53;2.67;;;16.70;94.50;;;;;;5093192;28;20454;-57
2023/07/06 00:18:35;;;;;;;3.93;3.03;;;16.70;94.60;;;;;;5093192;28;20452;-57
2023/07/06 00:21:03;;;;;;;4.50;3.00;;;16.70;94.60;;;;;;5093234;28;20468;-57
2023/07/06 00:23:31;;;;;;;7.50;3.40;;;16.70;94.60;;;;;;5093115;28;20463;-54
2023/07/06 00:25:58;;;;;;;4.83;3.10;;;16.70;94.60;;;;;;5093129;28;20451;-56
2023/07/06 00:28:28;;;;;;;5.40;3.07;;;16.60;94.50;;;;;;5092745;28;20448;-57
2023/07/06 00:30:57;;;;;;;5.90;3.30;;;16.60;94.50;;;;;;5093111;28;20507;-57
2023/07/06 00:33:26;;;;;;;3.27;2.77;;;16.60;94.40;;;;;;5093006;28;20503;-57
2023/07/06 00:35:53;;;;;;;3.47;2.73;;;16.60;94.40;;;;;;5093036;28;20447;-57
2023/07/06 00:38:21;;;;;;;5.00;3.33;;;16.70;94.50;;;;;;5093097;28;20474;-57
2023/07/06 00:40:51;;;;;;;4.03;3.10;;;16.60;94.40;;;;;;5096534;28;20571;-57
2023/07/06 00:43:20;;;;;;;4.53;2.67;;;16.60;94.30;;;;;;5096522;28;20475;-57
2023/07/06 00:45:51;;;;;;;9.20;3.03;;;16.60;94.40;;;;;;5096671;28;20937;-57
2023/07/06 00:48:22;;;;;;;7.03;3.10;;;16.60;94.40;;;;;;5096470;28;20435;-57
2023/07/06 00:50:53;;;;;;;5.47;3.57;;;16.50;94.40;;;;;;5096725;28;20428;-57
2023/07/06 00:53:21;;;;;;;5.97;3.60;;;16.40;94.60;;;;;;5096626;28;20472;-57
2023/07/06 00:55:51;;;;;;;7.63;3.57;;;16.40;94.70;;;;;;5096612;28;20450;-57
2023/07/06 00:58:22;;;;;;;5.90;3.67;;;16.40;94.70;;;;;;5096208;28;20448;-57
2023/07/06 01:00:49;;;;;;;3.90;3.40;;;16.30;94.90;;;;;;5096201;28;20467;-57
2023/07/06 01:03:19;;;;;;;3.87;2.70;;;16.30;95.00;;;;;;5096385;28;20471;-57
2023/07/06 01:05:47;;;;;;;7.13;3.60;;;16.30;94.80;;;;;;5096106;28;20516;-57
2023/07/06 01:08:17;;;;;;;5.17;2.90;;;16.30;94.90;;;;;;5096304;28;20937;-57
2023/07/06 01:10:45;;;;;;;7.10;4.30;;;16.30;94.90;;;;;;5096260;28;20817;-57
2023/07/06 01:13:13;;;;;;;6.33;3.27;;;16.30;94.90;;;;;;5096260;28;20480;-57
2023/07/06 01:15:44;;;;;;;6.43;3.47;;;16.30;94.90;;;;;;5096152;28;20483;-57
2023/07/06 01:18:16;;;;;;;7.10;3.60;;;16.30;94.80;;;;;;5095782;28;20804;-57
2023/07/06 01:20:48;;;;;;;7.73;3.33;;;16.20;94.90;;;;;;5096124;28;20483;-57
2023/07/06 01:23:55;;;;;;;8.50;3.30;;;16.20;94.90;;;;;;5096118;28;20475;-57
2023/07/06 01:26:55;;;;;;;9.27;3.10;;;16.20;94.90;;;;;;5096086;28;20435;-57
2023/07/06 01:29:52;;;;;;;5.53;2.90;;;16.10;94.90;;;;;;5096152;28;20847;-57
2023/07/06 01:32:24;;;;;;;7.00;4.43;;;16.10;94.80;;;;;;5094373;28;20470;-57
2023/07/06 01:34:58;;;;;;;13.40;3.20;;;16.10;94.70;;;;;;5095982;28;20920;-56
2023/07/06 01:37:31;;;;;;;5.80;3.20;;;16.10;94.70;;;;;;5095630;28;20913;-57
2023/07/06 01:39:59;;;;;;;6.70;2.80;;;16.10;94.50;;;;;;5095859;28;20432;-57
2023/07/06 01:42:30;;;;;;;9.83;3.43;;;16.10;94.40;;;;;;5095764;28;20491;-57
2023/07/06 01:45:01;;;;;;;5.93;3.03;;;16.00;94.40;;;;;;5095771;28;20793;-57
2023/07/06 01:47:30;;;;;;;8.60;2.73;;;16.10;94.50;;;;;;5095590;28;20424;-57
2023/07/06 01:50:01;;;;;;;5.07;4.23;;;16.10;94.90;;;;;;5095408;28;20493;-57
2023/07/06 01:52:49;;;;;;;10.37;3.97;;;16.10;94.50;;;;;;5095005;28;20460;-57
2023/07/06 01:55:24;;;;;;;9.37;3.30;;;16.10;94.40;;;;;;5095190;28;20969;-57
2023/07/06 01:57:59;;;;;;;9.57;3.00;;;16.10;94.40;;;;;;5095633;28;20435;-57
2023/07/06 02:00:28;;;;;;;6.43;3.10;;;16.10;94.20;;;;;;5095400;28;20438;-57
2023/07/06 02:02:56;;;;;;;6.33;2.70;;;16.20;94.10;;;;;;5095343;28;20459;-57
2023/07/06 02:05:24;;;;;;;10.00;3.20;;;16.10;94.00;;;;;;5095205;28;20818;-57
2023/07/06 02:07:51;;;;;;;6.80;2.93;;;16.10;93.90;;;;;;5095217;28;20452;-57
2023/07/06 02:10:19;;;;;;;10.37;3.47;;;16.10;93.80;;;;;;5095308;28;20518;-57
2023/07/06 02:12:49;;;;;;;9.47;4.10;;;16.10;93.60;;;;;;5095531;28;20459;-57
2023/07/06 02:15:18;;;;;;;7.03;3.10;;;16.10;93.60;;;;;;5095171;28;20455;-57
2023/07/06 02:17:46;;;;;;;10.90;3.57;;;16.10;93.40;;;;;;5095200;28;20455;-57
2023/07/06 02:20:16;;;;;;;12.07;3.37;;;16.10;93.40;;;;;;5094699;28;20937;-57
2023/07/06 02:22:44;;;;;;;6.83;2.83;;;16.00;93.40;;;;;;5094883;28;20491;-57
2023/07/06 02:25:11;;;;;;;9.10;3.10;;;15.90;93.40;;;;;;5095068;28;20447;-57
2023/07/06 02:27:37;;;;;;;8.50;2.87;;;15.90;93.30;;;;;;5094933;28;20448;-57
2023/07/06 02:30:05;;;;;;;4.73;2.93;;;15.80;93.40;;;;;;5094948;28;20460;-57
2023/07/06 02:32:33;;;;;;;11.20;3.47;;;15.80;93.40;;;;;;5094681;28;20467;-57
2023/07/06 02:34:59;;;;;;;9.47;2.87;;;15.70;93.50;;;;;;5094416;28;20451;-57
2023/07/06 02:37:29;;;;;;;5.60;3.93;;;15.70;93.80;;;;;;5094668;28;20817;-57
2023/07/06 02:39:58;;;;;;;12.83;3.70;;;15.70;93.80;;;;;;5094516;28;20440;-57
2023/07/06 02:42:25;;;;;;;5.70;2.90;;;15.70;93.80;;;;;;5094394;28;20490;-57
2023/07/06 02:44:52;;;;;;;9.00;4.23;;;15.70;93.80;;;;;;5094552;28;20455;-57
2023/07/06 02:47:21;;;;;;;6.37;3.10;;;15.70;93.70;;;;;;5094717;28;20470;-57
2023/07/06 02:49:48;;;;;;;10.80;3.33;;;15.70;93.70;;;;;;5094588;28;20483;-57
2023/07/06 02:52:15;;;;;;;4.93;2.77;;;15.60;93.80;;;;;;5094435;28;20827;-57
2023/07/06 02:54:43;;;;;;;5.90;2.40;;;15.60;93.80;;;;;;5094420;28;20451;-57
2023/07/06 02:57:10;;;;;;;15.70;3.47;;;15.60;93.90;;;;;;5094011;28;20960;-57
2023/07/06 02:59:37;;;;;;;5.93;2.90;;;15.60;93.90;;;;;;5094288;28;20501;-57
2023/07/06 03:02:04;;;;;;;8.47;3.53;;;15.60;93.70;;;;;;5093876;28;20487;-57
2023/07/06 03:04:31;;;;;;;9.77;3.40;;;15.60;93.80;;;;;;5094164;28;20447;-57
2023/07/06 03:06:58;;;;;;;15.03;3.23;;;15.60;93.70;;;;;;5094152;28;20455;-56
2023/07/06 03:09:26;;;;;;;13.33;4.10;;;15.60;93.70;;;;;;5094751;28;20494;-57
2023/07/06 03:11:54;;;;;;;7.23;2.77;;;15.50;93.60;;;;;;5095369;28;20450;-57
2023/07/06 03:14:24;;;;;;;7.00;3.30;;;15.50;93.60;;;;;;5094599;28;20448;-57
2023/07/06 03:16:53;;;;;;;5.67;2.53;;;15.50;93.50;;;;;;5093950;28;20484;-57
2023/07/06 03:19:20;;;;;;;8.73;2.77;;;15.40;93.50;;;;;;5093797;28;20477;-57
2023/07/06 03:21:47;;;;;;;5.37;3.10;;;15.40;93.60;;;;;;5094023;28;20491;-57
2023/07/06 03:24:15;;;;;;;11.67;3.47;;;15.40;93.50;;;;;;5093822;28;20450;-57
2023/07/06 03:26:42;;;;;;;7.93;3.13;;;15.30;93.70;;;;;;5093835;28;20465;-57
2023/07/06 03:29:12;;;;;;;6.00;3.20;;;15.40;93.80;;;;;;5093814;28;20439;-57
2023/07/06 03:31:38;;;;;;;4.77;2.50;;;15.30;93.80;;;;;;5093417;28;20478;-57
2023/07/06 03:34:06;;;;;;;9.40;3.50;;;15.40;93.80;;;;;;5093551;28;20472;-57
2023/07/06 03:36:33;;;;;;;7.60;2.90;;;15.30;93.70;;;;;;5093717;28;20484;-57
2023/07/06 03:39:00;;;;;;;6.60;2.70;;;15.30;93.80;;;;;;5093298;28;20479;-57
2023/07/06 03:41:27;;;;;;;8.57;3.33;;;15.30;93.90;;;;;;5093573;28;20483;-57
2023/07/06 03:43:56;;;;;;;12.17;2.70;;;15.30;93.70;;;;;;5093529;28;20472;-57
2023/07/06 03:46:24;;;;;;;8.93;2.63;;;15.30;93.70;;;;;;5093386;28;20452;-57
2023/07/06 03:48:51;;;;;;;10.20;3.10;;;15.20;93.70;;;;;;5093489;28;20809;-57
2023/07/06 03:51:18;;;;;;;9.13;2.40;;;15.20;93.50;;;;;;5093173;28;20864;-57
2023/07/06 03:53:46;;;;;;;7.63;2.80;;;15.20;93.90;;;;;;5093501;28;20498;-57
2023/07/06 03:56:13;;;;;;;7.53;3.90;;;15.20;93.60;;;;;;5093415;28;20456;-57
2023/07/06 03:58:42;;;;;;;9.30;2.60;;;15.20;93.50;;;;;;5093412;28;20454;-57
2023/07/06 04:01:09;;;;;;;11.70;2.80;;;15.20;93.60;;;;;;5093173;28;20483;-56
2023/07/06 04:03:37;;;;;;;9.23;2.80;;;15.20;93.40;;;;;;5093305;28;20463;-57
2023/07/06 04:06:04;;;;;;;6.23;2.20;;;15.20;93.60;;;;;;5093022;28;20969;-57
2023/07/06 04:08:32;;;;;;;8.43;2.40;;;15.20;93.30;;;;;;5093078;28;20945;-57
2023/07/06 04:10:58;;;;;;;7.73;3.20;;;15.20;93.60;;;;;;5093520;28;20871;-57
2023/07/06 04:13:25;;;;;;;10.43;3.23;;;15.20;93.80;;;;;;5093224;28;20470;-57
2023/07/06 04:15:52;;;;;;;10.70;2.43;;;15.20;93.90;;;;;;5097161;28;20451;-57
2023/07/06 04:18:19;;;;;;;7.57;2.17;;;15.20;93.60;;;;;;5097274;28;20554;-57
2023/07/06 04:20:48;;;;;;;7.70;3.10;;;15.10;93.60;;;;;;5097277;28;20444;-57
2023/07/06 04:23:15;;;;;;;10.20;2.60;;;15.10;93.70;;;;;;5097523;28;20483;-57
2023/07/06 04:25:44;;;;;;;12.10;3.80;;;15.10;93.60;;;;;;5097346;28;20443;-57
2023/07/06 04:28:12;;;;;;;8.37;3.10;;;15.10;93.90;;;;;;5097210;28;20447;-57
2023/07/06 04:30:42;;;;;;;6.83;2.50;;;15.10;94.00;;;;;;5096804;28;20447;-57
2023/07/06 04:33:14;;;;;;;9.17;2.60;;;15.20;93.90;;;;;;5097103;28;20464;-57
2023/07/06 04:35:42;;;;;;;7.20;3.63;;;15.20;93.90;;;;;;5096702;28;20431;-57
2023/07/06 04:38:11;;;;;;;8.47;2.80;;;15.20;94.00;;;;;;5096704;28;20949;-57
2023/07/06 04:40:38;;;;;;;7.03;3.00;;;15.20;94.30;;;;;;5096927;28;20893;-57
2023/07/06 04:43:05;;;;;;;14.10;3.17;;;15.20;94.30;;;;;;5096421;28;20490;-57
2023/07/06 04:45:32;;;;;;;5.80;2.40;;;15.20;94.50;;;;;;5096825;28;20798;-56
2023/07/06 04:47:58;;;;;;;9.90;3.03;;;15.20;94.60;;;;;;5096552;28;21047;-57
2023/07/06 04:50:25;;;;;;;6.97;2.60;;;15.30;94.70;;;;;;5096625;28;20447;-57
2023/07/06 04:52:55;;;;;;;7.90;3.10;;;15.30;94.80;;;;;;5096952;28;20462;-56
2023/07/06 04:55:25;;;;;;;8.00;2.43;;;15.40;94.60;;;;;;5097079;28;20443;-57
2023/07/06 04:57:54;;;;;;;6.20;2.80;;;15.40;94.40;;;;;;5096714;28;20424;-57
2023/07/06 05:00:24;;;;;;;7.43;2.30;;;15.40;94.40;;;;;;5096860;28;20505;-57
2023/07/06 05:02:52;;;;;;;7.53;2.43;;;15.40;94.60;;;;;;5096579;28;20559;-57
2023/07/06 05:05:19;;;;;;;7.80;2.50;;;15.50;94.60;;;;;;5096470;28;20470;-57
2023/07/06 05:07:46;;;;;;;4.63;2.53;;;15.50;94.50;;;;;;5096508;28;20462;-57
2023/07/06 05:10:14;;;;;;;9.33;2.83;;;15.50;94.30;;;;;;5096680;28;20486;-57
2023/07/06 05:12:42;;;;;;;9.60;2.80;;;15.60;94.40;;;;;;5096081;28;20977;-57
2023/07/06 05:15:10;;;;;;;5.43;2.90;;;15.50;94.10;;;;;;5096429;28;20444;-57
2023/07/06 05:17:37;;;;;;;9.17;2.43;;;15.50;94.40;;;;;;5097172;28;20540;-56
2023/07/06 05:20:06;;;;;;;4.57;2.40;;;15.60;94.60;;;;;;5096161;28;20459;-57
2023/07/06 05:22:39;;;;;;;4.13;2.50;;;15.60;94.60;;;;;;5096031;28;20562;-57
2023/07/06 05:25:06;;;;;;;9.03;2.20;;;15.70;94.60;;;;;;5096071;28;20432;-57
2023/07/06 05:27:34;;;;;;;5.57;2.07;;;15.70;94.80;;;;;;5096095;28;20444;-57
2023/07/06 05:30:02;;;;;;;7.57;2.10;;;15.70;94.50;;;;;;5095757;28;20456;-57
2023/07/06 05:32:29;;;;;;;4.90;1.97;;;15.80;94.50;;;;;;5096026;28;20475;-54
2023/07/06 05:34:56;;;;;;;3.93;1.80;;;15.80;94.30;;;;;;5095881;28;20451;-55
2023/07/06 05:37:23;;;;;;;6.67;2.20;;;15.80;94.40;;;;;;5095909;28;20942;-55
2023/07/06 05:39:49;;;;;;;5.77;2.20;;;15.90;94.60;;;;;;5095923;28;20533;-55
2023/07/06 05:42:17;;;;;;;7.43;2.20;;;16.00;94.30;;;;;;5095715;28;20483;-55
2023/07/06 05:44:44;;;;;;;5.90;2.27;;;16.00;94.10;;;;;;5096132;28;20539;-55
2023/07/06 05:47:12;;;;;;;3.30;2.13;;;16.10;93.60;;;;;;5095470;28;20456;-55
2023/07/06 05:49:39;;;;;;;7.33;2.87;;;16.10;93.90;;;;;;5096028;28;20450;-55
2023/07/06 05:52:06;;;;;;;7.73;2.37;;;16.10;93.40;;;;;;5095755;28;20471;-55
2023/07/06 05:54:33;;;;;;;6.73;2.20;;;16.20;93.40;;;;;;5095916;28;20451;-55
2023/07/06 05:57:02;;;;;;;7.30;2.23;;;16.20;93.50;;;;;;5095506;28;20447;-55
2023/07/06 05:59:29;;;;;;;8.63;2.30;;;16.30;93.70;;;;;;5095591;28;20499;-56
2023/07/06 06:01:57;;;;;;;3.33;2.10;;;16.30;93.70;;;;;;5095464;28;20455;-56
2023/07/06 06:04:25;;;;;;;5.53;2.17;;;16.40;94.10;;;;;;5095432;28;20443;-56
2023/07/06 06:06:56;;;;;;;7.40;2.60;;;16.40;92.90;;;;;;5095306;28;20456;-57
2023/07/06 06:09:25;;;;;;;6.77;2.30;;;16.40;93.20;;;;;;5095612;28;20424;-56
2023/07/06 06:11:52;;;;;;;7.07;2.20;;;16.50;93.10;;;;;;5095140;28;20454;-57
2023/07/06 06:14:19;;;;;;;3.40;2.10;;;16.50;92.80;;;;;;5095262;28;20452;-56
2023/07/06 06:16:46;;;;;;;6.83;2.70;;;16.60;93.00;;;;;;5095073;28;20498;-57
2023/07/06 06:19:13;;;;;;;6.93;2.57;;;16.70;93.00;;;;;;5094733;28;20509;-57
2023/07/06 06:21:41;;;;;;;4.73;2.20;;;16.70;92.80;;;;;;5095009;28;20444;-56
2023/07/06 06:24:10;;;;;;;12.53;2.80;;;16.80;92.80;;;;;;5095112;28;20484;-56
2023/07/06 06:26:37;;;;;;;7.57;2.50;;;16.80;93.10;;;;;;5094565;28;20972;-56
2023/07/06 06:29:04;;;;;;;4.43;2.00;;;16.90;92.40;;;;;;5094931;28;20524;-57
2023/07/06 06:31:32;;;;;;;8.60;2.50;;;16.90;92.50;;;;;;5094912;28;20484;-56
2023/07/06 06:33:59;;;;;;;9.57;2.33;;;17.00;92.40;;;;;;5094426;28;21004;-56
2023/07/06 06:36:26;;;;;;;4.97;2.10;;;17.10;92.70;;;;;;5095079;28;20447;-56
2023/07/06 06:38:54;;;;;;;4.77;2.00;;;17.20;92.50;;;;;;5094258;28;20950;-57
2023/07/06 06:41:21;;;;;;;4.10;2.07;;;17.30;92.90;;;;;;5094713;28;20448;-57
2023/07/06 06:43:48;;;;;;;6.97;2.43;;;17.40;92.40;;;;;;5094492;28;20515;-56
2023/07/06 06:46:15;;;;;;;6.00;2.30;;;17.50;91.90;;;;;;5094524;28;20455;-57
2023/07/06 06:48:42;;;;;;;6.10;1.93;;;17.50;91.50;;;;;;5094438;28;20451;-57
2023/07/06 06:51:11;;;;;;;5.70;2.60;;;17.60;92.10;;;;;;5094471;28;20443;-57
2023/07/06 06:53:39;;;;;;;3.17;2.20;;;17.70;91.70;;;;;;5094290;28;20471;-57
2023/07/06 06:56:09;;;;;;;8.13;2.60;;;17.80;91.70;;;;;;5094005;28;21008;-57
2023/07/06 06:58:36;;;;;;;4.80;2.60;;;17.90;91.80;;;;;;5094001;28;21031;-56
2023/07/06 07:01:05;;;;;;;3.50;2.30;;;17.90;90.90;;;;;;5094253;28;20471;-57
2023/07/06 07:03:34;;;;;;;6.40;3.30;;;18.00;91.00;;;;;;5093959;28;20896;-57
2023/07/06 07:06:01;;;;;;;4.10;2.33;;;18.10;90.80;;;;;;5093867;28;20452;-57
2023/07/06 07:08:28;;;;;;;9.00;2.60;;;18.20;90.20;;;;;;5093954;28;20448;-57
2023/07/06 07:10:57;;;;;;;4.53;2.60;;;18.20;90.30;;;;;;5094143;28;20444;-57
2023/07/06 07:13:25;;;;;;;7.00;2.57;;;18.30;90.40;;;;;;5093857;28;20470;-56
2023/07/06 07:15:52;;;;;;;5.93;3.07;;;18.40;90.80;;;;;;5094234;28;20456;-56
2023/07/06 07:18:20;;;;;;;6.83;3.40;;;18.50;90.50;;;;;;5093644;28;20469;-56
2023/07/06 07:20:50;;;;;;;10.03;2.77;;;18.60;90.30;;;;;;5093842;28;20429;-57
2023/07/06 07:23:17;;;;;;;5.23;3.50;;;18.70;90.20;;;;;;5093852;28;20518;-57
2023/07/06 07:25:44;;;;;;;7.47;3.30;;;18.70;88.10;;;;;;5093954;28;20444;-56
2023/07/06 07:28:10;;;;;;;6.83;2.97;;;18.80;89.20;;;;;;5093851;28;20451;-57
2023/07/06 07:30:40;;;;;;;8.60;2.97;;;18.90;89.00;;;;;;5093871;28;20443;-56
2023/07/06 07:33:07;;;;;;;4.73;2.50;;;19.10;89.60;;;;;;5093759;28;20513;-57
2023/07/06 07:35:33;;;;;;;7.90;2.90;;;19.10;88.70;;;;;;5093740;28;20455;-57
2023/07/06 07:38:01;;;;;;;7.77;2.77;;;19.20;88.00;;;;;;5093334;28;20937;-56
2023/07/06 07:40:28;;;;;;;9.00;2.83;;;19.30;89.10;;;;;;5093886;28;20444;-57
2023/07/06 07:42:54;;;;;;;12.93;3.73;;;19.50;87.90;;;;;;5093324;28;20483;-57
2023/07/06 07:45:21;;;;;;;4.73;2.60;;;19.70;87.20;;;;;;5093739;28;20444;-57
2023/07/06 07:47:49;;;;;;;6.57;2.67;;;19.70;85.80;;;;;;5093360;28;20534;-57
2023/07/06 07:50:17;;;;;;;9.80;3.13;;;19.80;86.60;;;;;;5093107;28;20443;-57
2023/07/06 07:52:44;;;;;;;8.77;2.80;;;19.90;86.40;;;;;;5094435;28;20478;-57
2023/07/06 07:55:10;;;;;;;6.43;2.80;;;20.10;86.90;;;;;;5093901;28;20448;-57
2023/07/06 07:57:37;;;;;;;7.37;2.83;;;20.20;85.00;;;;;;5094066;28;20452;-57
2023/07/06 08:00:09;;;;;;;8.13;3.00;;;20.30;83.70;;;;;;5093665;28;20452;-57
2023/07/06 08:02:36;;;;;;;6.20;3.10;;;20.50;85.00;;;;;;5094162;28;20468;-57
2023/07/06 08:05:09;;;;;;;7.60;2.50;;;20.60;83.80;;;;;;5093755;28;20475;-57
2023/07/06 08:07:35;;;;;;;9.13;2.90;;;20.80;83.90;;;;;;5094728;28;20906;-57
2023/07/06 08:10:02;;;;;;;7.60;3.13;;;21.00;83.20;;;;;;5093714;28;20447;-57
2023/07/06 08:12:31;;;;;;;6.70;2.53;;;21.20;80.80;;;;;;5093794;28;20490;-57
2023/07/06 08:14:57;;;;;;;6.53;2.40;;;21.30;80.50;;;;;;5093566;28;20475;-57
2023/07/06 08:17:26;;;;;;;4.50;3.00;;;21.50;79.20;;;;;;5093618;28;20447;-57
2023/07/06 08:19:53;;;;;;;6.77;2.73;;;21.60;77.00;;;;;;5093254;28;20455;-57
2023/07/06 08:22:22;;;;;;;7.40;2.77;;;21.80;78.60;;;;;;5093508;28;20499;-57
2023/07/06 08:24:49;;;;;;;11.20;2.93;;;22.00;75.20;;;;;;5092946;28;20887;-57
2023/07/06 08:27:15;;;;;;;4.30;2.10;;;22.00;73.90;;;;;;5093243;28;20443;-57
2023/07/06 08:29:44;;;;;;;5.57;2.67;;;22.00;72.70;;;;;;5093000;28;20451;-57
2023/07/06 08:32:14;;;;;;;6.90;2.40;;;22.10;74.10;;;;;;5093164;28;20472;-57
2023/07/06 08:34:41;;;;;;;3.93;2.37;;;22.00;71.30;;;;;;5093448;28;20427;-57
2023/07/06 08:37:08;;;;;;;6.20;2.50;;;21.80;73.00;;;;;;5093185;28;20455;-57
2023/07/06 08:39:36;;;;;;;5.53;2.40;;;21.80;72.70;;;;;;5092716;28;20455;-57
2023/07/06 08:42:03;;;;;;;4.13;2.20;;;21.80;74.10;;;;;;5092822;28;20448;-57
2023/07/06 08:44:29;;;;;;;8.17;2.30;;;22.00;72.20;;;;;;5092954;28;20494;-55
2023/07/06 08:46:57;;;;;;;6.60;2.13;;;22.20;72.40;;;;;;5093023;28;20452;-56
2023/07/06 08:49:29;;;;;;;3.13;2.10;;;22.50;70.80;;;;;;5093295;28;20452;-56
2023/07/06 08:52:02;;;;;;;6.33;2.07;;;22.70;70.00;;;;;;5092947;28;20854;-55
2023/07/06 08:54:30;;;;;;;4.63;2.10;;;22.90;68.20;;;;;;5092966;28;20793;-55
2023/07/06 08:57:00;;;;;;;5.33;1.80;;;23.20;64.50;;;;;;5092560;28;20933;-55
2023/07/06 08:59:37;;;;;;;4.57;1.77;;;23.30;61.60;;;;;;5092783;28;20452;-55
2023/07/06 09:02:18;;;;;;;1.67;1.37;;;23.50;62.40;;;;;;5096534;28;20424;-56
2023/07/06 09:04:46;;;;;;;3.30;1.57;;;23.60;59.70;;;;;;5096091;28;20996;-56
2023/07/06 09:07:15;;;;;;;3.43;1.37;;;23.80;60.70;;;;;;5096173;28;20479;-56
2023/07/06 09:09:44;;;;;;;2.40;1.53;;;24.00;59.10;;;;;;5096455;28;20448;-56
2023/07/06 09:12:20;;;;;;;5.30;1.63;;;24.10;55.50;;;;;;5096000;28;20463;-57
2023/07/06 09:14:50;;;;;;;4.17;1.90;;;24.00;55.40;;;;;;5096391;28;20431;-56
2023/07/06 09:17:18;;;;;;;4.27;1.50;;;24.00;55.40;;;;;;5096209;28;20467;-56
2023/07/06 09:19:46;;;;;;;2.57;1.23;;;24.00;55.30;;;;;;5095883;28;20459;-56
2023/07/06 09:22:13;;;;;;;2.40;1.40;;;24.10;55.90;;;;;;5096179;28;20479;-57
2023/07/06 09:24:45;;;;;;;5.77;1.07;;;24.40;54.90;;;;;;5096066;28;20476;-56
2023/07/06 09:27:19;;;;;;;2.83;1.50;;;24.70;54.00;;;;;;5096181;28;20797;-56
2023/07/06 09:29:56;;;;;;;2.70;1.40;;;24.90;51.10;;;;;;5096155;28;20527;-56
2023/07/06 09:32:23;;;;;;;2.00;1.23;;;25.00;50.50;;;;;;5096362;28;20514;-56
2023/07/06 09:34:52;;;;;;;1.43;0.90;;;25.00;48.30;;;;;;5095941;28;20440;-56
2023/07/06 09:37:20;;;;;;;3.07;1.20;;;25.00;47.90;;;;;;5095610;28;20966;-56
2023/07/06 09:39:58;;;;;;;2.20;1.10;;;25.20;47.70;;;;;;5095926;28;20455;-56
2023/07/06 09:42:28;;;;;;;2.20;1.00;;;25.20;45.00;;;;;;5095815;28;20470;-56
2023/07/06 09:44:55;;;;;;;1.90;1.07;;;25.50;47.50;;;;;;5096231;28;20507;-56
2023/07/06 09:47:23;;;;;;;4.03;1.10;;;25.60;45.20;;;;;;5095801;28;20459;-57
2023/07/06 09:49:54;;;;;;;1.53;0.80;;;25.60;44.90;;;;;;5095684;28;20448;-56
2023/07/06 09:52:21;;;;;;;3.10;1.03;;;25.60;44.90;;;;;;5095286;28;20977;-56
2023/07/06 09:54:55;;;;;;;3.37;1.20;;;25.70;45.30;;;;;;5095583;28;20479;-57
2023/07/06 09:57:26;;;;;;;2.50;1.20;;;26.00;45.70;;;;;;5095590;28;20833;-56
2023/07/06 09:59:54;;;;;;;3.67;1.07;;;26.20;45.00;;;;;;5095556;28;20427;-57
2023/07/06 10:02:34;;;;;;;1.83;1.30;;;26.30;43.80;;;;;;5095402;28;20471;-56
2023/07/06 10:05:14;;;;;;;2.50;1.27;;;26.50;44.60;;;;;;5095395;28;20463;-56
2023/07/06 10:07:49;;;;;;;3.53;1.20;;;27.00;44.40;;;;;;5095427;28;20466;-55
2023/07/06 10:10:23;;;;;;;3.13;1.30;;;27.40;42.40;;;;;;5095324;28;20432;-57
2023/07/06 10:13:00;;;;;;;1.33;0.80;;;27.70;39.20;;;;;;5094409;28;20467;-56
2023/07/06 10:15:33;;;;;;;2.27;1.30;;;28.20;38.70;;;;;;5095374;28;20439;-57
2023/07/06 10:18:05;;;;;;;1.73;0.90;;;28.70;37.10;;;;;;5095085;28;20801;-56
2023/07/06 10:20:39;;;;;;;2.10;1.00;;;29.00;37.20;;;;;;5095584;28;20428;-56
2023/07/06 10:23:26;;;;;;;1.77;0.97;;;29.40;35.90;;;;;;5094870;28;20475;-56
2023/07/06 10:26:07;;;;;;;1.47;0.87;;;29.70;34.90;;;;;;5095004;28;20530;-56
2023/07/06 10:28:40;;;;;;;1.50;1.10;;;29.80;34.60;;;;;;5094671;28;20459;-56
2023/07/06 10:31:11;;;;;;;1.93;0.80;;;29.90;34.20;;;;;;5094896;28;20432;-56
2023/07/06 10:33:53;;;;;;;1.00;0.87;;;30.20;34.70;;;;;;5094774;28;20455;-56
2023/07/06 10:36:20;;;;;;;2.00;1.30;;;30.50;32.90;;;;;;5094727;28;20447;-56
2023/07/06 10:38:48;;;;;;;1.57;1.20;;;30.60;32.40;;;;;;5094711;28;20459;-56
2023/07/06 10:41:29;;;;;;;1.30;1.10;;;30.90;30.70;;;;;;5094649;28;20508;-57
2023/07/06 10:44:02;;;;;;;1.73;0.93;;;30.90;31.10;;;;;;5078101;28;20507;-56
2023/07/06 10:46:35;;;;;;;2.90;0.90;;;31.10;29.50;;;;;;5074432;28;20435;-56
2023/07/06 10:49:16;;;;;;;2.30;0.97;;;31.60;30.60;;;;;;5074279;28;20441;-57
2023/07/06 10:51:50;;;;;;;2.53;1.00;;;32.20;31.20;;;;;;5074742;28;20440;-56
2023/07/06 10:54:19;;;;;;;3.40;1.20;;;32.40;27.30;;;;;;5074038;28;20432;-56
2023/07/06 10:56:59;;;;;;;1.77;1.17;;;32.70;28.00;;;;;;5074187;28;20841;-56
2023/07/06 10:59:35;;;;;;;2.03;1.23;;;33.10;27.80;;;;;;5074098;28;20430;-55
2023/07/06 11:02:14;;;;;;;2.03;1.33;;;33.30;26.10;;;;;;5074037;28;20523;-55
2023/07/06 11:04:54;;;;;;;2.50;1.10;;;33.40;25.60;;;;;;5073938;28;20471;-55
2023/07/06 11:07:45;;;;;;;3.27;1.30;;;33.70;26.00;;;;;;5074899;28;20438;-55
2023/07/06 11:10:22;;;;;;;2.07;1.30;;;33.40;25.20;;;;;;5074132;28;20443;-55
2023/07/06 11:12:55;;;;;;;5.10;1.80;;;33.40;27.50;;;;;;5074001;28;20463;-54
2023/07/06 11:15:26;;;;;;;6.20;1.40;;;33.70;26.60;;;;;;5073546;28;20922;-55
2023/07/06 11:17:56;;;;;;;3.27;1.37;;;34.00;25.90;;;;;;5073642;28;20827;-55
2023/07/06 11:20:25;;;;;;;6.60;1.90;;;34.40;26.10;;;;;;5073826;28;20448;-55
2023/07/06 11:22:56;;;;;;;1.57;1.40;;;34.80;26.10;;;;;;5073778;28;20464;-55
2023/07/06 11:25:23;;;;;;;2.13;1.00;;;35.00;25.00;;;;;;5073642;28;20486;-55
2023/07/06 11:27:54;;;;;;;3.83;1.50;;;34.80;24.80;;;;;;5073825;28;20464;-55
2023/07/06 11:30:31;;;;;;;1.40;1.10;;;35.10;25.90;;;;;;5073724;28;20482;-55
2023/07/06 11:33:13;;;;;;;1.67;1.23;;;35.20;25.50;;;;;;5073498;28;20467;-55
2023/07/06 11:35:49;;;;;;;2.30;1.47;;;35.40;25.30;;;;;;5073615;28;20432;-55
2023/07/06 11:38:27;;;;;;;1.70;1.40;;;35.80;25.40;;;;;;5073547;28;20428;-55
2023/07/06 11:41:12;;;;;;;4.17;1.50;;;36.30;24.70;;;;;;5073395;28;20941;-55
2023/07/06 11:43:55;;;;;;;2.60;1.17;;;36.00;24.50;;;;;;5073341;28;20221;-55
2023/07/06 11:46:34;;;;;;;3.37;1.53;;;34.90;25.30;;;;;;5073444;28;20424;-55
2023/07/06 11:49:15;;;;;;;2.53;1.47;;;34.00;26.40;;;;;;5073039;28;20828;-55
2023/07/06 11:51:43;;;;;;;2.77;1.50;;;33.10;26.70;;;;;;5073188;28;20915;-55
2023/07/06 11:54:29;;;;;;;4.50;1.57;;;32.60;28.10;;;;;;5074604;28;20474;-55
2023/07/06 11:57:23;;;;;;;3.93;1.40;;;31.80;29.00;;;;;;5073387;28;20429;-55
2023/07/06 11:59:55;;;;;;;1.73;1.20;;;30.90;30.30;;;;;;5073817;28;20428;-55
2023/07/06 12:02:26;;;;;;;2.40;1.30;;;31.20;30.40;;;;;;5073164;28;20483;-55
2023/07/06 12:04:52;;;;;;;2.53;1.10;;;32.20;29.50;;;;;;5073184;28;20494;-55
2023/07/06 12:07:27;;;;;;;2.23;0.90;;;33.40;28.40;;;;;;5073146;28;20459;-55
2023/07/06 12:09:54;;;;;;;3.13;1.00;;;34.80;27.00;;;;;;5073117;28;20454;-55
2023/07/06 12:12:23;;;;;;;1.83;0.97;;;35.60;24.40;;;;;;5073027;28;20521;-55
2023/07/06 12:14:52;;;;;;;3.57;1.50;;;35.90;24.00;;;;;;5073179;28;20470;-55
2023/07/06 12:17:19;;;;;;;1.60;1.10;;;36.40;24.30;;;;;;5073181;28;20205;-55
2023/07/06 12:19:47;;;;;;;1.37;1.10;;;36.70;23.40;;;;;;5072913;28;20214;-55
2023/07/06 12:22:16;;;;;;;1.37;1.00;;;37.30;23.90;;;;;;5072808;28;20222;-55
2023/07/06 12:24:43;;;;;;;2.35;1.30;;;37.10;23.10;;;;;;5073243;28;20256;-55
2023/07/06 12:27:14;;;;;;;4.93;1.43;;;37.10;23.30;;;;;;5073062;28;20205;-55
2023/07/06 12:29:41;;;;;;;1.40;1.30;;;36.50;23.60;;;;;;5073021;28;20306;-56
2023/07/06 12:32:23;;;;;;;2.50;1.10;;;35.70;24.30;;;;;;5073116;28;20240;-55
2023/07/06 12:34:54;;;;;;;2.73;1.63;;;35.10;25.50;;;;;;5073448;28;20863;-55
2023/07/06 12:37:24;;;;;;;5.53;1.47;;;34.60;25.60;;;;;;5076925;28;20421;-55
2023/07/06 12:39:51;;;;;;;3.43;1.70;;;33.50;26.20;;;;;;5077893;28;20457;-55
2023/07/06 12:42:20;;;;;;;1.40;1.20;;;32.90;26.90;;;;;;5077477;28;20468;-55
2023/07/06 12:44:50;;;;;;;1.80;1.20;;;33.10;27.60;;;;;;5077057;28;20486;-55
2023/07/06 12:47:24;;;;;;;1.37;1.03;;;33.80;25.90;;;;;;5076753;28;20436;-55
2023/07/06 12:49:58;;;;;;;2.17;1.30;;;34.50;26.20;;;;;;5076699;28;20485;-56
2023/07/06 12:52:26;;;;;;;1.63;1.40;;;34.80;25.60;;;;;;5076624;28;20501;-56
2023/07/06 12:54:56;;;;;;;1.93;1.50;;;34.60;24.80;;;;;;5076157;28;20937;-56
2023/07/06 12:57:25;;;;;;;2.13;1.17;;;34.40;25.40;;;;;;5076779;28;20933;-55
2023/07/06 12:59:56;;;;;;;1.70;1.20;;;34.10;26.90;;;;;;5076182;28;20941;-55